F/V Attalaya Berria — FHCB — position and weather

sailwx.info

Track history (hours):
 
Tides and Currents Weather Stations Pressure Air Temp Water Temp Dewpoint Dewpoint Depression Visibility Wind Speed Wind Dir Waves Ship Positions

F/V Attalaya Berria

Last reported at 2014-Nov-21 10:13 UTC. Time now 2014-Nov-23 14:46 UTC.
Position N 43°22' W 001°47'.

Length 26 m.

Type: Fishing. MMSI: 228315000.

Date/timePositionNaut miles runAvg speedWind from/ knotsBaromVisibWave heightAir tempDewpointWater temp
2014-Nov-21 10:13N 43°22' W 001°47'1 0.4
2014-Nov-21 07:33N 43°23' W 001°47'7 6.4
2014-Nov-21 06:31N 43°21' W 001°56'1 0.1
2014-Nov-21 02:30N 43°20' W 001°56'12 8.8
2014-Nov-21 01:10N 43°27' W 001°43'0 0.5
2014-Nov-21 00:27N 43°27' W 001°42'2 2.0
2014-Nov-20 23:20N 43°25' W 001°44'2 2.8
2014-Nov-20 22:33N 43°25' W 001°41'5 4.8
2014-Nov-20 21:33N 43°28' W 001°36'5 4.9
2014-Nov-20 20:33N 43°32' W 001°33'7 7.3
2014-Nov-20 19:32N 43°27' W 001°40'2 1.6
2014-Nov-20 18:25N 43°27' W 001°43'6 0.4
2014-Nov-20 04:33N 43°22' W 001°47'3 0.8
2014-Nov-20 00:16N 43°24' W 001°51'10 4.7
2014-Nov-19 22:13N 43°28' W 001°40'1 0.0
2014-Nov-18 20:23N 43°29' W 001°40'  
2014-Nov-13 03:07N 43°22' W 001°47'3 1.2
2014-Nov-13 00:26N 43°24' W 001°44'4 3.5
2014-Nov-12 23:15N 43°28' W 001°41'4 5.9
2014-Nov-12 22:32N 43°31' W 001°37'1 1.2
2014-Nov-12 21:21N 43°31' W 001°35'8 2.9
2014-Nov-12 18:26N 43°26' W 001°44'  
Track history (hours):
 
Tides and Currents Weather Stations Pressure Air Temp Water Temp Dewpoint Dewpoint Depression Visibility Wind Speed Wind Dir Waves Ship Positions

F/V Attalaya Berria

Last reported at 2014-Nov-21 10:13 UTC. Time now 2014-Nov-23 14:46 UTC.
Position N 43°22' W 001°47'.

Length 26 m.

Type: Fishing. MMSI: 228315000.

Date/timePositionNaut miles runAvg speedWind from/ knotsBaromVisibWave heightAir tempDewpointWater temp
2014-Nov-21 10:13N 43°22' W 001°47'1 0.4
2014-Nov-21 07:33N 43°23' W 001°47'7 6.4
2014-Nov-21 06:31N 43°21' W 001°56'1 0.1
2014-Nov-21 02:30N 43°20' W 001°56'12 8.8
2014-Nov-21 01:10N 43°27' W 001°43'0 0.5
2014-Nov-21 00:27N 43°27' W 001°42'2 2.0
2014-Nov-20 23:20N 43°25' W 001°44'2 2.8
2014-Nov-20 22:33N 43°25' W 001°41'5 4.8
2014-Nov-20 21:33N 43°28' W 001°36'5 4.9
2014-Nov-20 20:33N 43°32' W 001°33'7 7.3
2014-Nov-20 19:32N 43°27' W 001°40'2 1.6
2014-Nov-20 18:25N 43°27' W 001°43'6 0.4
2014-Nov-20 04:33N 43°22' W 001°47'3 0.8
2014-Nov-20 00:16N 43°24' W 001°51'10 4.7
2014-Nov-19 22:13N 43°28' W 001°40'1 0.0
2014-Nov-18 20:23N 43°29' W 001°40'  
2014-Nov-13 03:07N 43°22' W 001°47'3 1.2
2014-Nov-13 00:26N 43°24' W 001°44'4 3.5
2014-Nov-12 23:15N 43°28' W 001°41'4 5.9
2014-Nov-12 22:32N 43°31' W 001°37'1 1.2
2014-Nov-12 21:21N 43°31' W 001°35'8 2.9
2014-Nov-12 18:26N 43°26' W 001°44'  

Dump ship's entire track history